Time;durP1;ratioP1;P1;durP2;ratioP2;P2;SDS_P1;SDS_P2;PMS_P1;PMS_P2;Temp;Humidity;BMP_temperature;BMP_pressure;BME280_temperature;BME280_humidity;BME280_pressure;Samples;Min_cycle;Max_cycle;Signal;HPM_P1;HPM_P2
2023/05/29 00:00:46;;;;;;;0.63;0.60;;;;;;;;;;5067335;28;20557;-61
2023/05/29 00:03:13;;;;;;;0.75;0.60;;;;;;;;;;5066512;28;20029;-63
2023/05/29 00:05:40;;;;;;;5.35;1.27;;;;;;;;;;5066752;28;20032;-61
2023/05/29 00:08:07;;;;;;;2.05;1.08;;;;;;;;;;5072218;28;20028;-61
2023/05/29 00:10:35;;;;;;;4.40;1.05;;;;;;;;;;5072075;28;20086;-62
2023/05/29 00:13:02;;;;;;;1.58;0.93;;;;;;;;;;5071748;28;20032;-61
2023/05/29 00:15:30;;;;;;;1.23;0.77;;;;;;;;;;5071896;28;20033;-61
2023/05/29 00:17:57;;;;;;;1.73;0.95;;;;;;;;;;5071578;28;20031;-61
2023/05/29 00:20:23;;;;;;;2.20;1.25;;;;;;;;;;5066576;28;20605;-60
2023/05/29 00:22:50;;;;;;;4.07;1.70;;;;;;;;;;5066874;28;20039;-60
2023/05/29 00:25:17;;;;;;;1.45;1.05;;;;;;;;;;5066920;28;20037;-60
2023/05/29 00:27:44;;;;;;;4.63;1.30;;;;;;;;;;5066914;28;20029;-60
2023/05/29 00:30:11;;;;;;;1.65;1.08;;;;;;;;;;5071711;28;20103;-60
2023/05/29 00:32:37;;;;;;;5.30;0.93;;;;;;;;;;5072046;28;20028;-60
2023/05/29 00:35:04;;;;;;;1.35;0.85;;;;;;;;;;5071691;28;20150;-60
2023/05/29 00:37:31;;;;;;;2.70;1.40;;;;;;;;;;5071860;28;20419;-60
2023/05/29 00:39:58;;;;;;;2.65;1.27;;;;;;;;;;5071708;28;20147;-61
2023/05/29 00:42:25;;;;;;;3.88;1.50;;;;;;;;;;5067260;28;20021;-61
2023/05/29 00:44:52;;;;;;;0.88;0.63;;;;;;;;;;5066740;28;20036;-60
2023/05/29 00:47:19;;;;;;;2.22;1.38;;;;;;;;;;5066937;28;20522;-60
2023/05/29 00:49:46;;;;;;;0.85;0.70;;;;;;;;;;5066388;28;20439;-61
2023/05/29 00:52:13;;;;;;;5.68;0.73;;;;;;;;;;5070651;28;20029;-60
2023/05/29 00:54:40;;;;;;;2.97;1.30;;;;;;;;;;5071649;28;20025;-60
2023/05/29 00:57:07;;;;;;;1.17;0.98;;;;;;;;;;5071511;28;20024;-61
2023/05/29 00:59:34;;;;;;;3.20;1.13;;;;;;;;;;5071720;28;20056;-61
2023/05/29 01:02:02;;;;;;;6.07;1.73;;;;;;;;;;5071489;28;20083;-61
2023/05/29 01:04:33;;;;;;;3.08;1.58;;;;;;;;;;5067642;28;20398;-61
2023/05/29 01:07:02;;;;;;;3.20;1.33;;;;;;;;;;5066419;28;20070;-60
2023/05/29 01:09:30;;;;;;;3.10;1.02;;;;;;;;;;5066138;28;20029;-61
2023/05/29 01:12:20;;;;;;;2.15;1.40;;;;;;;;;;5065839;28;20037;-60
2023/05/29 01:15:05;;;;;;;3.75;1.70;;;;;;;;;;5070603;28;20021;-60
2023/05/29 01:17:56;;;;;;;1.40;1.08;;;;;;;;;;5071824;28;20134;-62
2023/05/29 01:20:32;;;;;;;4.23;2.00;;;;;;;;;;5071713;28;20070;-60
2023/05/29 01:23:05;;;;;;;2.03;1.43;;;;;;;;;;5071629;28;20024;-60
2023/05/29 01:25:49;;;;;;;2.67;1.70;;;;;;;;;;5072561;28;20043;-60
2023/05/29 01:28:17;;;;;;;2.90;1.80;;;;;;;;;;5069908;28;20036;-60
2023/05/29 01:30:44;;;;;;;4.70;2.40;;;;;;;;;;5069989;28;20483;-60
2023/05/29 01:33:10;;;;;;;4.73;3.03;;;;;;;;;;5069729;28;20025;-60
2023/05/29 01:35:37;;;;;;;6.60;3.70;;;;;;;;;;5071077;28;20032;-60
2023/05/29 01:38:04;;;;;;;5.37;3.27;;;;;;;;;;5074884;28;20085;-60
2023/05/29 01:40:31;;;;;;;12.63;3.90;;;;;;;;;;5074741;28;20028;-60
2023/05/29 01:42:58;;;;;;;7.30;3.27;;;;;;;;;;5074943;28;20030;-60
2023/05/29 01:45:25;;;;;;;4.10;2.67;;;;;;;;;;5074750;28;20516;-60
2023/05/29 01:47:52;;;;;;;3.13;2.40;;;;;;;;;;5073656;28;20387;-60
2023/05/29 01:50:19;;;;;;;6.10;4.00;;;;;;;;;;5069414;28;20027;-61
2023/05/29 01:52:46;;;;;;;7.17;3.53;;;;;;;;;;5069900;28;20483;-60
2023/05/29 01:55:13;;;;;;;10.47;3.90;;;;;;;;;;5069335;28;20029;-60
2023/05/29 01:57:40;;;;;;;6.30;3.50;;;;;;;;;;5068680;28;20104;-60
2023/05/29 02:00:11;;;;;;;8.43;4.40;;;;;;;;;;5074597;28;20025;-61
2023/05/29 02:02:38;;;;;;;6.33;3.87;;;;;;;;;;5074389;28;20512;-60
2023/05/29 02:05:06;;;;;;;4.27;2.93;;;;;;;;;;5074462;28;20551;-60
2023/05/29 02:07:33;;;;;;;13.67;4.40;;;;;;;;;;5074179;28;20016;-60
2023/05/29 02:10:00;;;;;;;5.03;3.60;;;;;;;;;;5074271;28;20416;-60
2023/05/29 02:12:26;;;;;;;8.23;4.00;;;;;;;;;;5069023;28;20035;-60
2023/05/29 02:14:53;;;;;;;8.40;3.73;;;;;;;;;;5068657;28;20448;-60
2023/05/29 02:17:20;;;;;;;6.03;3.50;;;;;;;;;;5069142;28;20048;-60
2023/05/29 02:19:47;;;;;;;4.80;3.37;;;;;;;;;;5068231;28;20036;-60
2023/05/29 02:22:14;;;;;;;4.73;3.77;;;;;;;;;;5073263;28;20028;-60
2023/05/29 02:24:40;;;;;;;4.73;3.50;;;;;;;;;;5073648;28;20433;-60
2023/05/29 02:27:07;;;;;;;8.77;3.53;;;;;;;;;;5074117;28;20035;-60
2023/05/29 02:29:34;;;;;;;5.70;3.60;;;;;;;;;;5073979;28;20024;-60
2023/05/29 02:32:01;;;;;;;5.70;3.97;;;;;;;;;;5073966;28;20052;-60
2023/05/29 02:34:29;;;;;;;6.07;3.77;;;;;;;;;;5068810;28;20031;-60
2023/05/29 02:36:56;;;;;;;5.53;4.13;;;;;;;;;;5067945;28;20082;-60
2023/05/29 02:39:23;;;;;;;5.87;4.43;;;;;;;;;;5068684;28;20119;-60
2023/05/29 02:41:50;;;;;;;6.30;3.83;;;;;;;;;;5068113;28;20032;-60
2023/05/29 02:44:16;;;;;;;9.27;5.77;;;;;;;;;;5072271;28;20036;-60
2023/05/29 02:46:43;;;;;;;7.97;4.00;;;;;;;;;;5073635;28;20423;-61
2023/05/29 02:49:10;;;;;;;6.37;4.60;;;;;;;;;;5073736;28;20032;-60
2023/05/29 02:51:37;;;;;;;5.70;4.20;;;;;;;;;;5073192;28;20031;-61
2023/05/29 02:54:04;;;;;;;4.10;3.17;;;;;;;;;;5073538;28;20035;-59
2023/05/29 02:56:31;;;;;;;9.50;4.30;;;;;;;;;;5069195;28;20032;-60
2023/05/29 02:58:58;;;;;;;4.93;3.53;;;;;;;;;;5066625;28;20028;-60
2023/05/29 03:01:24;;;;;;;6.10;2.83;;;;;;;;;;5067918;28;20517;-60
2023/05/29 03:03:51;;;;;;;6.30;4.47;;;;;;;;;;5068363;28;20077;-60
2023/05/29 03:06:18;;;;;;;5.10;3.87;;;;;;;;;;5070435;28;20135;-60
2023/05/29 03:08:46;;;;;;;9.17;4.53;;;;;;;;;;5073293;28;20422;-60
2023/05/29 03:11:15;;;;;;;11.47;4.80;;;;;;;;;;5073214;28;20032;-60
2023/05/29 03:13:41;;;;;;;7.20;4.50;;;;;;;;;;5073070;28;20457;-60
2023/05/29 03:16:08;;;;;;;5.73;4.53;;;;;;;;;;5072981;28;20029;-60
2023/05/29 03:18:35;;;;;;;8.77;5.37;;;;;;;;;;5070196;28;20085;-60
2023/05/29 03:21:02;;;;;;;6.33;4.73;;;;;;;;;;5067880;28;20016;-60
2023/05/29 03:23:29;;;;;;;9.57;4.77;;;;;;;;;;5067574;28;20588;-60
2023/05/29 03:25:56;;;;;;;10.87;5.43;;;;;;;;;;5067693;28;20036;-60
2023/05/29 03:28:22;;;;;;;11.20;5.40;;;;;;;;;;5069208;28;20028;-60
2023/05/29 03:30:49;;;;;;;8.07;5.07;;;;;;;;;;5072694;28;20063;-60
2023/05/29 03:33:16;;;;;;;6.37;4.17;;;;;;;;;;5072210;28;20108;-60
2023/05/29 03:35:43;;;;;;;6.10;4.27;;;;;;;;;;5072366;28;20024;-60
2023/05/29 03:38:10;;;;;;;9.27;4.97;;;;;;;;;;5072889;28;20087;-60
2023/05/29 03:40:36;;;;;;;10.20;3.97;;;;;;;;;;5070857;28;20024;-60
2023/05/29 03:43:03;;;;;;;7.43;5.10;;;;;;;;;;5067465;28;20147;-60
2023/05/29 03:45:30;;;;;;;5.40;4.13;;;;;;;;;;5066789;28;20033;-60
2023/05/29 03:47:57;;;;;;;7.37;5.00;;;;;;;;;;5066605;28;20035;-60
2023/05/29 03:50:23;;;;;;;5.37;4.37;;;;;;;;;;5067467;28;20369;-60
2023/05/29 03:52:50;;;;;;;7.40;4.13;;;;;;;;;;5072659;28;20105;-60
2023/05/29 03:55:17;;;;;;;9.37;5.07;;;;;;;;;;5072504;28;20023;-60
2023/05/29 03:57:44;;;;;;;7.23;4.73;;;;;;;;;;5072446;28;20495;-60
2023/05/29 04:00:11;;;;;;;8.43;4.37;;;;;;;;;;5072644;28;20025;-60
2023/05/29 04:02:41;;;;;;;18.10;3.37;;;;;;;;;;5072215;28;20032;-59
2023/05/29 04:05:08;;;;;;;5.83;4.53;;;;;;;;;;5066930;28;20033;-60
2023/05/29 04:07:37;;;;;;;8.87;4.47;;;;;;;;;;5067025;28;20504;-60
2023/05/29 04:10:04;;;;;;;3.83;2.87;;;;;;;;;;5066767;28;20383;-60
2023/05/29 04:12:31;;;;;;;6.23;4.20;;;;;;;;;;5067370;28;20366;-60
2023/05/29 04:14:58;;;;;;;4.90;3.23;;;;;;;;;;5071157;28;20028;-60
2023/05/29 04:17:24;;;;;;;5.27;3.40;;;;;;;;;;5072340;28;20099;-60
2023/05/29 04:19:51;;;;;;;6.97;2.70;;;;;;;;;;5072223;28;20036;-60
2023/05/29 04:22:19;;;;;;;5.33;3.77;;;;;;;;;;5071946;28;20020;-60
2023/05/29 04:24:46;;;;;;;6.63;4.03;;;;;;;;;;5072093;28;20035;-60
2023/05/29 04:27:13;;;;;;;7.60;4.33;;;;;;;;;;5069287;28;20616;-60
2023/05/29 04:29:42;;;;;;;7.87;3.93;;;;;;;;;;5066748;28;20555;-60
2023/05/29 04:32:11;;;;;;;5.63;3.47;;;;;;;;;;5066738;28;20424;-60
2023/05/29 04:34:43;;;;;;;6.03;3.23;;;;;;;;;;5066880;28;20039;-60
2023/05/29 04:37:10;;;;;;;5.37;2.67;;;;;;;;;;5068864;28;20467;-60
2023/05/29 04:39:37;;;;;;;5.63;3.93;;;;;;;;;;5071965;28;20502;-60
2023/05/29 04:42:05;;;;;;;10.00;4.77;;;;;;;;;;5071788;28;20431;-60
2023/05/29 04:44:32;;;;;;;6.33;3.83;;;;;;;;;;5071634;28;20044;-60
2023/05/29 04:47:02;;;;;;;5.87;4.27;;;;;;;;;;5072021;28;20028;-60
2023/05/29 04:49:29;;;;;;;15.13;3.97;;;;;;;;;;5070163;28;20025;-60
2023/05/29 04:52:00;;;;;;;5.77;3.67;;;;;;;;;;5066626;28;20021;-60
2023/05/29 04:54:27;;;;;;;5.47;3.63;;;;;;;;;;5066398;28;20028;-60
2023/05/29 04:56:54;;;;;;;5.60;3.03;;;;;;;;;;5066538;28;20025;-60
2023/05/29 04:59:21;;;;;;;5.23;3.70;;;;;;;;;;5067577;28;20059;-60
2023/05/29 05:01:48;;;;;;;5.47;4.07;;;;;;;;;;5075400;28;20111;-59
2023/05/29 05:04:15;;;;;;;6.10;4.00;;;;;;;;;;5075472;28;20032;-60
2023/05/29 05:06:43;;;;;;;4.63;3.30;;;;;;;;;;5075763;28;20043;-60
2023/05/29 05:09:10;;;;;;;6.57;4.13;;;;;;;;;;5075141;28;20025;-60
2023/05/29 05:11:37;;;;;;;8.67;3.90;;;;;;;;;;5075412;28;20466;-60
2023/05/29 05:14:04;;;;;;;6.10;3.30;;;;;;;;;;5071823;28;20541;-60
2023/05/29 05:16:32;;;;;;;6.67;3.97;;;;;;;;;;5069676;28;20048;-60
2023/05/29 05:18:59;;;;;;;6.73;4.97;;;;;;;;;;5069909;28;20052;-60
2023/05/29 05:21:26;;;;;;;8.63;5.50;;;;;;;;;;5069998;28;20051;-60
2023/05/29 05:23:53;;;;;;;4.83;3.60;;;;;;;;;;5073093;28;20099;-60
2023/05/29 05:26:20;;;;;;;9.17;4.97;;;;;;;;;;5075091;28;20033;-60
2023/05/29 05:28:47;;;;;;;8.80;5.30;;;;;;;;;;5074770;28;20501;-60
2023/05/29 05:31:14;;;;;;;11.37;5.70;;;;;;;;;;5075012;28;20028;-60
2023/05/29 05:33:41;;;;;;;17.17;5.23;;;;;;;;;;5074570;28;20024;-60
2023/05/29 05:36:07;;;;;;;7.77;4.27;;;;;;;;;;5072298;28;20028;-60
2023/05/29 05:38:34;;;;;;;7.27;4.23;;;;;;;;;;5069852;28;20025;-60
2023/05/29 05:41:01;;;;;;;6.97;4.83;;;;;;;;;;5069772;28;20421;-60
2023/05/29 05:43:29;;;;;;;6.70;5.00;;;;;;;;;;5069530;28;20090;-60
2023/05/29 05:45:55;;;;;;;7.57;4.93;;;;;;;;;;5071608;28;20046;-60
2023/05/29 05:48:22;;;;;;;7.43;4.07;;;;;;;;;;5074807;28;20045;-60
2023/05/29 05:50:49;;;;;;;4.97;3.93;;;;;;;;;;5074425;28;20020;-59
2023/05/29 05:53:20;;;;;;;8.77;4.17;;;;;;;;;;5074706;28;20078;-60
2023/05/29 05:55:47;;;;;;;8.53;3.97;;;;;;;;;;5074546;28;20035;-61
2023/05/29 05:58:14;;;;;;;6.63;3.90;;;;;;;;;;5072317;28;20115;-60
2023/05/29 06:00:42;;;;;;;5.20;4.17;;;;;;;;;;5069327;28;20078;-60
2023/05/29 06:03:09;;;;;;;4.83;4.23;;;;;;;;;;5068962;28;20111;-60
2023/05/29 06:05:37;;;;;;;5.67;4.03;;;;;;;;;;5069150;28;20040;-60
2023/05/29 06:08:04;;;;;;;7.63;4.57;;;;;;;;;;5070728;28;20115;-60
2023/05/29 06:10:31;;;;;;;5.37;4.17;;;;;;;;;;5074236;28;20029;-60
2023/05/29 06:12:57;;;;;;;5.30;3.80;;;;;;;;;;5073422;28;20044;-60
2023/05/29 06:15:24;;;;;;;7.37;4.07;;;;;;;;;;5074590;28;20024;-60
2023/05/29 06:17:52;;;;;;;5.57;4.33;;;;;;;;;;5074287;28;20107;-60
2023/05/29 06:20:19;;;;;;;7.60;4.73;;;;;;;;;;5072375;28;20089;-60
2023/05/29 06:22:50;;;;;;;7.77;5.80;;;;;;;;;;5068215;28;20032;-60
2023/05/29 06:25:20;;;;;;;9.40;6.40;;;;;;;;;;5068705;28;20033;-59
2023/05/29 06:27:47;;;;;;;7.93;5.80;;;;;;;;;;5068852;28;20035;-60
2023/05/29 06:30:13;;;;;;;6.13;4.60;;;;;;;;;;5069813;28;20100;-60
2023/05/29 06:32:40;;;;;;;18.20;6.23;;;;;;;;;;5074052;28;20024;-60
2023/05/29 06:35:07;;;;;;;11.40;5.10;;;;;;;;;;5073912;28;20102;-60
2023/05/29 06:37:34;;;;;;;6.43;5.30;;;;;;;;;;5074080;28;20029;-59
2023/05/29 06:40:01;;;;;;;7.60;4.73;;;;;;;;;;5073440;28;20025;-60
2023/05/29 06:42:28;;;;;;;25.53;5.40;;;;;;;;;;5072440;28;20028;-61
2023/05/29 06:44:54;;;;;;;6.57;4.93;;;;;;;;;;5068308;28;20048;-60
2023/05/29 06:47:21;;;;;;;6.57;4.47;;;;;;;;;;5068365;28;20357;-60
2023/05/29 06:49:48;;;;;;;8.47;5.23;;;;;;;;;;5068582;28;20031;-60
2023/05/29 06:52:14;;;;;;;5.60;4.87;;;;;;;;;;5068417;28;20386;-60
2023/05/29 06:54:42;;;;;;;7.03;5.33;;;;;;;;;;5073645;28;20096;-60
2023/05/29 06:57:08;;;;;;;7.50;4.70;;;;;;;;;;5073099;28;20038;-60
2023/05/29 06:59:35;;;;;;;9.13;4.93;;;;;;;;;;5073452;28;20372;-60
2023/05/29 07:02:02;;;;;;;8.10;6.13;;;;;;;;;;5073300;28;20502;-60
2023/05/29 07:04:28;;;;;;;6.27;5.07;;;;;;;;;;5072780;28;20504;-60
2023/05/29 07:06:55;;;;;;;6.47;5.23;;;;;;;;;;5068066;28;20016;-59
2023/05/29 07:09:22;;;;;;;8.63;5.40;;;;;;;;;;5068124;28;20510;-60
2023/05/29 07:11:49;;;;;;;11.33;5.97;;;;;;;;;;5068066;28;20051;-60
2023/05/29 07:14:16;;;;;;;5.53;4.73;;;;;;;;;;5067527;28;20024;-60
2023/05/29 07:16:42;;;;;;;5.70;4.53;;;;;;;;;;5072634;28;20021;-60
2023/05/29 07:19:11;;;;;;;4.10;3.30;;;;;;;;;;5073090;28;20104;-59
2023/05/29 07:21:37;;;;;;;9.63;3.77;;;;;;;;;;5073013;28;20064;-59
2023/05/29 07:24:05;;;;;;;7.13;5.20;;;;;;;;;;5072773;28;20032;-60
2023/05/29 07:26:31;;;;;;;7.03;5.53;;;;;;;;;;5072885;28;20044;-60
2023/05/29 07:28:59;;;;;;;6.20;4.87;;;;;;;;;;5067957;28;20082;-60
2023/05/29 07:31:25;;;;;;;7.47;5.30;;;;;;;;;;5067369;28;20051;-60
2023/05/29 07:33:52;;;;;;;6.83;4.60;;;;;;;;;;5067317;28;20025;-60
2023/05/29 07:36:19;;;;;;;7.53;4.90;;;;;;;;;;5067454;28;20031;-59
2023/05/29 07:38:46;;;;;;;10.17;4.73;;;;;;;;;;5071434;28;20099;-59
2023/05/29 07:41:13;;;;;;;8.47;6.03;;;;;;;;;;5072804;28;20086;-60
2023/05/29 07:43:39;;;;;;;6.57;4.47;;;;;;;;;;5072508;28;20024;-60
2023/05/29 07:46:06;;;;;;;7.77;5.47;;;;;;;;;;5072610;28;20040;-59
2023/05/29 07:48:33;;;;;;;17.17;6.43;;;;;;;;;;5072711;28;20091;-59
2023/05/29 07:51:00;;;;;;;9.80;5.37;;;;;;;;;;5067816;28;20032;-59
2023/05/29 07:53:26;;;;;;;6.20;4.73;;;;;;;;;;5067264;28;20104;-60
2023/05/29 07:55:53;;;;;;;12.53;6.77;;;;;;;;;;5067241;28;20465;-59
2023/05/29 07:58:21;;;;;;;6.60;5.73;;;;;;;;;;5067185;28;20398;-60
2023/05/29 08:00:48;;;;;;;10.17;6.30;;;;;;;;;;5070422;28;20020;-59
2023/05/29 08:03:15;;;;;;;6.23;4.97;;;;;;;;;;5072193;28;20051;-59
2023/05/29 08:05:42;;;;;;;10.33;6.17;;;;;;;;;;5072264;28;20059;-59
2023/05/29 08:08:08;;;;;;;12.00;6.83;;;;;;;;;;5071731;28;20028;-60
2023/05/29 08:10:35;;;;;;;10.93;6.57;;;;;;;;;;5072374;28;20074;-60
2023/05/29 08:13:02;;;;;;;9.40;6.43;;;;;;;;;;5069010;28;20031;-60
2023/05/29 08:15:29;;;;;;;7.23;5.27;;;;;;;;;;5066922;28;20158;-60
2023/05/29 08:17:56;;;;;;;8.70;5.67;;;;;;;;;;5066888;28;20028;-59
2023/05/29 08:20:22;;;;;;;5.80;4.20;;;;;;;;;;5066849;28;20690;-60
2023/05/29 08:22:49;;;;;;;8.20;5.13;;;;;;;;;;5069553;28;20518;-60
2023/05/29 08:25:16;;;;;;;8.93;5.80;;;;;;;;;;5071720;28;20387;-60
2023/05/29 08:27:43;;;;;;;12.03;6.07;;;;;;;;;;5072274;28;20055;-60
2023/05/29 08:30:10;;;;;;;6.83;4.57;;;;;;;;;;5072226;28;20094;-60
2023/05/29 08:32:37;;;;;;;6.23;4.87;;;;;;;;;;5072142;28;20025;-59
2023/05/29 08:35:04;;;;;;;6.07;4.53;;;;;;;;;;5071076;28;20028;-60
2023/05/29 08:37:31;;;;;;;5.70;4.27;;;;;;;;;;5070887;28;20032;-60
2023/05/29 08:39:57;;;;;;;5.77;4.90;;;;;;;;;;5070977;28;20031;-60
2023/05/29 08:42:33;;;;;;;9.63;5.27;;;;;;;;;;5070819;28;20104;-60
2023/05/29 08:45:03;;;;;;;8.27;5.50;;;;;;;;;;5072492;28;20075;-60
2023/05/29 08:47:33;;;;;;;6.33;4.83;;;;;;;;;;5075826;28;20032;-60
2023/05/29 08:50:02;;;;;;;7.27;5.03;;;;;;;;;;5076055;28;20025;-60
2023/05/29 08:52:30;;;;;;;7.57;4.90;;;;;;;;;;5075871;28;20029;-59
2023/05/29 08:54:58;;;;;;;6.57;4.90;;;;;;;;;;5075957;28;20112;-59
2023/05/29 08:57:26;;;;;;;6.77;4.67;;;;;;;;;;5073057;28;20466;-59
2023/05/29 08:59:53;;;;;;;7.03;3.70;;;;;;;;;;5070344;28;20051;-60
2023/05/29 09:02:20;;;;;;;5.73;4.57;;;;;;;;;;5070696;28;20025;-59
2023/05/29 09:04:52;;;;;;;12.60;6.27;;;;;;;;;;5070351;28;20032;-59
2023/05/29 09:07:19;;;;;;;5.83;4.07;;;;;;;;;;5072310;28;20025;-59
2023/05/29 09:09:47;;;;;;;6.83;5.53;;;;;;;;;;5075851;28;20421;-59
2023/05/29 09:12:14;;;;;;;7.57;4.70;;;;;;;;;;5075153;28;20023;-60
2023/05/29 09:14:42;;;;;;;11.17;7.20;;;;;;;;;;5075590;28;20067;-59
2023/05/29 09:17:09;;;;;;;6.00;4.17;;;;;;;;;;5075128;28;20052;-59
2023/05/29 09:19:38;;;;;;;9.17;5.23;;;;;;;;;;5073056;28;20379;-59
2023/05/29 09:22:06;;;;;;;9.10;6.37;;;;;;;;;;5070054;28;20550;-59
2023/05/29 09:24:33;;;;;;;8.87;6.47;;;;;;;;;;5069708;28;20479;-59
2023/05/29 09:27:01;;;;;;;7.57;4.60;;;;;;;;;;5070159;28;20360;-59
2023/05/29 09:29:34;;;;;;;8.70;5.70;;;;;;;;;;5071461;28;20020;-60
2023/05/29 09:32:01;;;;;;;9.03;6.00;;;;;;;;;;5074957;28;20086;-60
2023/05/29 09:34:31;;;;;;;8.60;6.10;;;;;;;;;;5074896;28;20070;-59
2023/05/29 09:37:08;;;;;;;7.07;5.60;;;;;;;;;;5075309;28;20024;-59
2023/05/29 09:39:48;;;;;;;5.87;4.30;;;;;;;;;;5074842;28;20085;-59
2023/05/29 09:42:16;;;;;;;6.77;5.77;;;;;;;;;;5072342;28;20029;-59
2023/05/29 09:44:43;;;;;;;6.93;5.33;;;;;;;;;;5069486;28;20075;-59
2023/05/29 09:47:10;;;;;;;14.00;5.43;;;;;;;;;;5068136;28;20031;-59
2023/05/29 09:49:41;;;;;;;11.50;5.77;;;;;;;;;;5069564;28;20051;-59
2023/05/29 09:52:09;;;;;;;5.50;4.23;;;;;;;;;;5071677;28;20099;-59
2023/05/29 09:54:36;;;;;;;8.97;5.33;;;;;;;;;;5074209;28;20040;-60
2023/05/29 09:57:05;;;;;;;13.63;6.63;;;;;;;;;;5074680;28;20025;-59
2023/05/29 09:59:32;;;;;;;6.57;5.13;;;;;;;;;;5074515;28;20044;-59
2023/05/29 10:02:03;;;;;;;7.60;5.77;;;;;;;;;;5074499;28;20162;-59
2023/05/29 10:04:33;;;;;;;8.90;6.13;;;;;;;;;;5071989;28;20027;-59
2023/05/29 10:07:12;;;;;;;6.67;4.97;;;;;;;;;;5069415;28;20027;-59
2023/05/29 10:09:47;;;;;;;8.73;5.23;;;;;;;;;;5069021;28;20483;-59
2023/05/29 10:12:18;;;;;;;8.13;6.37;;;;;;;;;;5069097;28;20107;-60
2023/05/29 10:14:46;;;;;;;11.70;7.17;;;;;;;;;;5071806;28;20029;-60
2023/05/29 10:17:13;;;;;;;11.60;6.87;;;;;;;;;;5074369;28;20474;-59
2023/05/29 10:19:40;;;;;;;7.87;6.63;;;;;;;;;;5074064;28;20371;-59
2023/05/29 10:22:08;;;;;;;7.87;6.27;;;;;;;;;;5074153;28;20040;-60
2023/05/29 10:24:36;;;;;;;18.80;6.90;;;;;;;;;;5073913;28;20036;-60
2023/05/29 10:27:03;;;;;;;12.73;6.63;;;;;;;;;;5071334;28;20473;-59
2023/05/29 10:29:38;;;;;;;9.00;5.23;;;;;;;;;;5068659;28;20375;-59
2023/05/29 10:32:24;;;;;;;6.17;4.77;;;;;;;;;;5068795;28;20456;-59
2023/05/29 10:35:13;;;;;;;7.23;5.27;;;;;;;;;;5068596;28;20036;-59
2023/05/29 10:37:58;;;;;;;7.80;5.73;;;;;;;;;;5062197;28;20410;-59
2023/05/29 10:40:26;;;;;;;6.65;5.35;;;;;;;;;;5074033;28;20548;-59
2023/05/29 10:42:57;;;;;;;7.87;4.00;;;;;;;;;;5073767;28;20442;-59
2023/05/29 10:45:31;;;;;;;10.60;5.20;;;;;;;;;;5073800;28;20032;-59
2023/05/29 10:48:13;;;;;;;5.83;3.97;;;;;;;;;;5073440;28;20035;-59
2023/05/29 10:50:42;;;;;;;5.07;3.43;;;;;;;;;;5068205;28;20077;-59
2023/05/29 10:53:12;;;;;;;10.70;6.20;;;;;;;;;;5068377;28;20034;-59
2023/05/29 10:55:39;;;;;;;9.70;4.60;;;;;;;;;;5068339;28;20418;-60
2023/05/29 10:58:09;;;;;;;6.73;5.30;;;;;;;;;;5067802;28;20063;-59
2023/05/29 11:00:44;;;;;;;4.47;3.77;;;;;;;;;;5073169;28;20048;-59
2023/05/29 11:03:11;;;;;;;9.67;5.47;;;;;;;;;;5073232;28;20024;-60
2023/05/29 11:06:13;;;;;;;7.07;5.57;;;;;;;;;;5073527;28;20052;-59
2023/05/29 11:08:47;;;;;;;7.90;5.50;;;;;;;;;;5030685;28;20052;-59
2023/05/29 11:11:15;;;;;;;10.50;6.13;;;;;;;;;;5070911;28;20025;-59
2023/05/29 11:13:44;;;;;;;9.97;4.83;;;;;;;;;;5068043;28;20024;-59
2023/05/29 11:16:29;;;;;;;4.87;4.23;;;;;;;;;;5067704;28;20028;-60
2023/05/29 11:18:56;;;;;;;6.30;5.47;;;;;;;;;;5067650;28;20028;-59
2023/05/29 11:21:36;;;;;;;7.57;6.20;;;;;;;;;;5069707;28;20020;-59
2023/05/29 11:24:04;;;;;;;12.83;7.37;;;;;;;;;;5073089;28;20028;-59
2023/05/29 11:26:32;;;;;;;7.33;5.30;;;;;;;;;;5072744;28;20115;-59
2023/05/29 11:29:00;;;;;;;11.40;6.00;;;;;;;;;;5072683;28;20020;-59
2023/05/29 11:31:27;;;;;;;7.80;6.20;;;;;;;;;;5072478;28;20028;-59
2023/05/29 11:33:56;;;;;;;10.77;5.77;;;;;;;;;;5069052;28;20025;-59
2023/05/29 11:36:23;;;;;;;6.77;5.50;;;;;;;;;;5065670;28;20055;-60
2023/05/29 11:38:52;;;;;;;7.73;6.43;;;;;;;;;;5065748;28;20111;-59
2023/05/29 11:41:19;;;;;;;6.80;5.17;;;;;;;;;;5065714;28;20052;-60
2023/05/29 11:43:56;;;;;;;7.30;5.33;;;;;;;;;;5067805;28;20021;-59
2023/05/29 11:46:23;;;;;;;10.97;6.63;;;;;;;;;;5070716;28;20426;-59
2023/05/29 11:48:50;;;;;;;6.27;4.93;;;;;;;;;;5071107;28;20028;-59
2023/05/29 11:51:17;;;;;;;7.63;5.87;;;;;;;;;;5072031;28;20470;-59
2023/05/29 11:53:44;;;;;;;11.73;7.93;;;;;;;;;;5072742;28;20424;-59
2023/05/29 11:56:11;;;;;;;6.77;5.17;;;;;;;;;;5070254;28;20103;-59
2023/05/29 11:58:39;;;;;;;5.93;4.70;;;;;;;;;;5067070;28;20104;-59
2023/05/29 12:01:07;;;;;;;8.90;6.57;;;;;;;;;;5067127;28;20514;-60
2023/05/29 12:03:44;;;;;;;12.00;7.20;;;;;;;;;;5067304;28;20063;-59
2023/05/29 12:06:11;;;;;;;9.43;7.50;;;;;;;;;;5068578;28;20395;-59
2023/05/29 12:08:38;;;;;;;9.17;7.03;;;;;;;;;;5071676;28;20028;-59
2023/05/29 12:11:05;;;;;;;7.60;6.50;;;;;;;;;;5072191;28;20099;-59
2023/05/29 12:13:32;;;;;;;11.97;7.97;;;;;;;;;;5072414;28;20432;-60
2023/05/29 12:16:03;;;;;;;6.50;4.90;;;;;;;;;;5072384;28;20371;-59
2023/05/29 12:18:30;;;;;;;10.37;7.57;;;;;;;;;;5069982;28;20486;-59
2023/05/29 12:21:01;;;;;;;10.73;7.37;;;;;;;;;;5066658;28;20028;-59
2023/05/29 12:23:29;;;;;;;10.20;6.97;;;;;;;;;;5066943;28;20031;-59
2023/05/29 12:25:57;;;;;;;16.17;7.27;;;;;;;;;;5066654;28;20033;-59
2023/05/29 12:28:23;;;;;;;10.00;7.97;;;;;;;;;;5068255;28;20025;-60
2023/05/29 12:30:51;;;;;;;12.13;7.27;;;;;;;;;;5072119;28;20163;-59
2023/05/29 12:33:33;;;;;;;16.13;4.77;;;;;;;;;;5071999;28;20075;-59
2023/05/29 12:36:05;;;;;;;11.47;7.43;;;;;;;;;;5071956;28;20074;-59
2023/05/29 12:38:31;;;;;;;19.00;6.43;;;;;;;;;;5072074;28;20064;-59
2023/05/29 12:40:58;;;;;;;7.43;5.80;;;;;;;;;;5069470;28;20028;-59
2023/05/29 12:43:25;;;;;;;13.07;7.43;;;;;;;;;;5066780;28;20453;-59
2023/05/29 12:45:59;;;;;;;15.57;6.30;;;;;;;;;;5066625;28;20029;-59
2023/05/29 12:48:29;;;;;;;9.43;4.67;;;;;;;;;;5066112;28;20445;-59
2023/05/29 12:50:57;;;;;;;17.77;7.93;;;;;;;;;;5068536;28;20107;-59
2023/05/29 12:53:30;;;;;;;11.33;7.27;;;;;;;;;;5071852;28;20033;-59
2023/05/29 12:55:57;;;;;;;12.50;9.43;;;;;;;;;;5070083;28;20371;-59
2023/05/29 12:58:23;;;;;;;14.07;9.00;;;;;;;;;;5071605;28;20027;-59
2023/05/29 13:00:55;;;;;;;10.57;7.53;;;;;;;;;;5071691;28;20028;-59
2023/05/29 13:03:25;;;;;;;10.23;7.83;;;;;;;;;;5068939;28;20025;-59
2023/05/29 13:05:55;;;;;;;14.53;9.07;;;;;;;;;;5066231;28;20043;-60
2023/05/29 13:08:22;;;;;;;22.33;9.43;;;;;;;;;;5066063;28;20371;-59
2023/05/29 13:10:49;;;;;;;21.53;8.33;;;;;;;;;;5066439;28;20487;-59
2023/05/29 13:13:16;;;;;;;10.90;7.60;;;;;;;;;;5068354;28;20024;-59
2023/05/29 13:15:43;;;;;;;14.23;8.60;;;;;;;;;;5071781;28;20433;-59
2023/05/29 13:18:09;;;;;;;8.33;7.33;;;;;;;;;;5071333;28;20104;-59
2023/05/29 13:20:36;;;;;;;11.50;7.93;;;;;;;;;;5072309;28;20089;-59
2023/05/29 13:23:03;;;;;;;12.10;8.63;;;;;;;;;;5075100;28;20029;-60
2023/05/29 13:25:30;;;;;;;10.43;7.37;;;;;;;;;;5073050;28;20033;-59
2023/05/29 13:27:57;;;;;;;13.57;8.40;;;;;;;;;;5069553;28;20031;-60
2023/05/29 13:30:23;;;;;;;18.50;7.40;;;;;;;;;;5052034;28;20033;-60
2023/05/29 13:32:51;;;;;;;11.70;7.10;;;;;;;;;;5069591;28;20036;-60
2023/05/29 13:35:18;;;;;;;12.93;7.53;;;;;;;;;;5070794;28;20086;-59
2023/05/29 13:37:45;;;;;;;10.57;7.47;;;;;;;;;;5074854;28;20028;-59
2023/05/29 13:40:13;;;;;;;9.77;6.63;;;;;;;;;;5074676;28;20345;-60
2023/05/29 13:42:40;;;;;;;13.40;6.23;;;;;;;;;;5074972;28;20112;-60
2023/05/29 13:45:08;;;;;;;9.10;6.53;;;;;;;;;;5074743;28;20067;-59
2023/05/29 13:47:35;;;;;;;9.63;6.90;;;;;;;;;;5073281;28;20036;-59
2023/05/29 13:50:02;;;;;;;6.70;6.00;;;;;;;;;;5069335;28;20028;-60
2023/05/29 13:52:28;;;;;;;7.53;6.13;;;;;;;;;;5068773;28;20036;-60
2023/05/29 13:54:57;;;;;;;6.43;5.57;;;;;;;;;;5069556;28;20028;-59
2023/05/29 13:57:24;;;;;;;8.67;6.70;;;;;;;;;;5069786;28;20123;-60
2023/05/29 13:59:51;;;;;;;9.07;6.23;;;;;;;;;;5074394;28;20037;-60
2023/05/29 14:02:18;;;;;;;7.73;6.87;;;;;;;;;;5074733;28;20056;-60
2023/05/29 14:04:45;;;;;;;9.80;6.93;;;;;;;;;;5074498;28;20025;-60
2023/05/29 14:07:11;;;;;;;10.33;6.47;;;;;;;;;;5074406;28;20037;-60
2023/05/29 14:09:38;;;;;;;8.47;5.97;;;;;;;;;;5073101;28;20029;-61
2023/05/29 14:12:05;;;;;;;11.77;6.13;;;;;;;;;;5069057;28;20107;-60
2023/05/29 14:14:34;;;;;;;11.97;7.30;;;;;;;;;;5068897;28;20125;-60
2023/05/29 14:17:01;;;;;;;7.90;5.67;;;;;;;;;;5068871;28;20020;-60
2023/05/29 14:19:28;;;;;;;13.73;7.37;;;;;;;;;;5068712;28;20196;-60
2023/05/29 14:21:54;;;;;;;7.47;5.60;;;;;;;;;;5074365;28;20090;-60
2023/05/29 14:24:21;;;;;;;7.97;5.43;;;;;;;;;;5074089;28;20494;-60
2023/05/29 14:26:48;;;;;;;9.00;7.13;;;;;;;;;;5073696;28;20036;-61
2023/05/29 14:29:15;;;;;;;9.40;6.67;;;;;;;;;;5073955;28;20095;-61
2023/05/29 14:31:43;;;;;;;8.10;5.80;;;;;;;;;;5073671;28;20526;-60
2023/05/29 14:34:10;;;;;;;9.77;7.00;;;;;;;;;;5068074;28;20020;-60
2023/05/29 14:36:36;;;;;;;9.33;6.20;;;;;;;;;;5068719;28;20510;-60
2023/05/29 14:39:05;;;;;;;10.33;7.70;;;;;;;;;;5068325;28;20096;-60
2023/05/29 14:41:33;;;;;;;8.80;6.87;;;;;;;;;;5068361;28;20441;-60
2023/05/29 14:44:00;;;;;;;7.93;6.00;;;;;;;;;;5073059;28;20069;-60
2023/05/29 14:46:31;;;;;;;10.07;7.43;;;;;;;;;;5073575;28;20056;-60